sensor_id;sensor_type;location;lat;lon;timestamp;P1;durP1;ratioP1;P2;durP2;ratioP2
25079;SDS011;13071;48.868;9.996;2023-02-05T00:01:12;3.88;;;2.58;;
25079;SDS011;13071;48.868;9.996;2023-02-05T00:03:39;3.50;;;2.35;;
25079;SDS011;13071;48.868;9.996;2023-02-05T00:06:06;8.18;;;3.15;;
25079;SDS011;13071;48.868;9.996;2023-02-05T00:08:34;3.67;;;2.70;;
25079;SDS011;13071;48.868;9.996;2023-02-05T00:11:01;4.13;;;2.72;;
25079;SDS011;13071;48.868;9.996;2023-02-05T00:13:33;7.93;;;3.17;;
25079;SDS011;13071;48.868;9.996;2023-02-05T00:16:00;9.05;;;3.53;;
25079;SDS011;13071;48.868;9.996;2023-02-05T00:18:26;6.15;;;3.40;;
25079;SDS011;13071;48.868;9.996;2023-02-05T00:20:53;14.32;;;3.15;;
25079;SDS011;13071;48.868;9.996;2023-02-05T00:23:19;4.93;;;3.05;;
25079;SDS011;13071;48.868;9.996;2023-02-05T00:25:47;8.18;;;2.70;;
25079;SDS011;13071;48.868;9.996;2023-02-05T00:28:14;6.18;;;3.00;;
25079;SDS011;13071;48.868;9.996;2023-02-05T00:30:40;6.57;;;2.97;;
25079;SDS011;13071;48.868;9.996;2023-02-05T00:33:07;6.15;;;2.90;;
25079;SDS011;13071;48.868;9.996;2023-02-05T00:35:33;6.97;;;2.97;;
25079;SDS011;13071;48.868;9.996;2023-02-05T00:38:00;6.38;;;3.00;;
25079;SDS011;13071;48.868;9.996;2023-02-05T00:40:28;6.60;;;3.10;;
25079;SDS011;13071;48.868;9.996;2023-02-05T00:42:56;8.20;;;3.27;;
25079;SDS011;13071;48.868;9.996;2023-02-05T00:45:22;7.03;;;3.47;;
25079;SDS011;13071;48.868;9.996;2023-02-05T00:47:49;10.50;;;3.53;;
25079;SDS011;13071;48.868;9.996;2023-02-05T00:50:15;13.63;;;5.32;;
25079;SDS011;13071;48.868;9.996;2023-02-05T00:52:42;9.27;;;3.43;;
25079;SDS011;13071;48.868;9.996;2023-02-05T00:55:09;7.37;;;3.30;;
25079;SDS011;13071;48.868;9.996;2023-02-05T00:57:35;6.97;;;2.70;;
25079;SDS011;13071;48.868;9.996;2023-02-05T01:00:03;9.93;;;2.53;;
25079;SDS011;13071;48.868;9.996;2023-02-05T01:02:32;2.00;;;1.65;;
25079;SDS011;13071;48.868;9.996;2023-02-05T01:04:59;6.15;;;1.95;;
25079;SDS011;13071;48.868;9.996;2023-02-05T01:07:26;3.78;;;1.98;;
25079;SDS011;13071;48.868;9.996;2023-02-05T01:09:52;2.97;;;1.93;;
25079;SDS011;13071;48.868;9.996;2023-02-05T01:12:19;2.85;;;2.05;;
25079;SDS011;13071;48.868;9.996;2023-02-05T01:14:45;2.60;;;1.80;;
25079;SDS011;13071;48.868;9.996;2023-02-05T01:17:13;4.80;;;2.10;;
25079;SDS011;13071;48.868;9.996;2023-02-05T01:19:40;3.80;;;2.20;;
25079;SDS011;13071;48.868;9.996;2023-02-05T01:22:07;3.27;;;1.73;;
25079;SDS011;13071;48.868;9.996;2023-02-05T01:24:35;3.63;;;1.80;;
25079;SDS011;13071;48.868;9.996;2023-02-05T01:27:02;2.77;;;2.13;;
25079;SDS011;13071;48.868;9.996;2023-02-05T01:29:29;2.57;;;1.50;;
25079;SDS011;13071;48.868;9.996;2023-02-05T01:31:56;4.67;;;2.40;;
25079;SDS011;13071;48.868;9.996;2023-02-05T01:34:24;5.13;;;1.80;;
25079;SDS011;13071;48.868;9.996;2023-02-05T01:36:50;4.03;;;2.00;;
25079;SDS011;13071;48.868;9.996;2023-02-05T01:39:17;1.87;;;1.57;;
25079;SDS011;13071;48.868;9.996;2023-02-05T01:41:43;4.43;;;2.20;;
25079;SDS011;13071;48.868;9.996;2023-02-05T01:44:11;3.87;;;2.20;;
25079;SDS011;13071;48.868;9.996;2023-02-05T01:46:42;4.23;;;2.27;;
25079;SDS011;13071;48.868;9.996;2023-02-05T01:49:11;5.80;;;2.73;;
25079;SDS011;13071;48.868;9.996;2023-02-05T01:51:42;3.10;;;1.97;;
25079;SDS011;13071;48.868;9.996;2023-02-05T01:54:10;2.40;;;1.80;;
25079;SDS011;13071;48.868;9.996;2023-02-05T01:56:38;4.33;;;2.23;;
25079;SDS011;13071;48.868;9.996;2023-02-05T01:59:09;4.33;;;2.23;;
25079;SDS011;13071;48.868;9.996;2023-02-05T02:01:39;3.70;;;2.00;;
25079;SDS011;13071;48.868;9.996;2023-02-05T02:04:07;3.57;;;2.53;;
25079;SDS011;13071;48.868;9.996;2023-02-05T02:06:36;3.60;;;1.90;;
25079;SDS011;13071;48.868;9.996;2023-02-05T02:09:04;4.67;;;1.83;;
25079;SDS011;13071;48.868;9.996;2023-02-05T02:11:32;4.33;;;2.00;;
25079;SDS011;13071;48.868;9.996;2023-02-05T02:14:02;3.07;;;1.87;;
25079;SDS011;13071;48.868;9.996;2023-02-05T02:16:38;2.38;;;1.55;;
25079;SDS011;13071;48.868;9.996;2023-02-05T02:19:06;2.57;;;1.80;;
25079;SDS011;13071;48.868;9.996;2023-02-05T02:21:46;4.70;;;2.17;;
25079;SDS011;13071;48.868;9.996;2023-02-05T02:27:38;4.07;;;2.00;;
25079;SDS011;13071;48.868;9.996;2023-02-05T02:30:08;2.75;;;2.30;;
25079;SDS011;13071;48.868;9.996;2023-02-05T02:32:42;4.70;;;1.77;;
25079;SDS011;13071;48.868;9.996;2023-02-05T02:35:15;2.28;;;1.58;;
25079;SDS011;13071;48.868;9.996;2023-02-05T02:37:51;4.00;;;1.43;;
25079;SDS011;13071;48.868;9.996;2023-02-05T02:40:27;2.93;;;1.87;;
25079;SDS011;13071;48.868;9.996;2023-02-05T02:43:02;2.47;;;1.93;;
25079;SDS011;13071;48.868;9.996;2023-02-05T02:45:34;3.53;;;2.10;;
25079;SDS011;13071;48.868;9.996;2023-02-05T02:48:07;7.20;;;3.00;;
25079;SDS011;13071;48.868;9.996;2023-02-05T02:50:35;12.37;;;3.20;;
25079;SDS011;13071;48.868;9.996;2023-02-05T02:53:07;7.37;;;3.10;;
25079;SDS011;13071;48.868;9.996;2023-02-05T02:55:36;5.23;;;2.53;;
25079;SDS011;13071;48.868;9.996;2023-02-05T02:58:09;6.00;;;2.80;;
25079;SDS011;13071;48.868;9.996;2023-02-05T03:00:42;7.40;;;2.43;;
25079;SDS011;13071;48.868;9.996;2023-02-05T03:03:10;3.70;;;2.83;;
25079;SDS011;13071;48.868;9.996;2023-02-05T03:05:41;3.70;;;2.43;;
25079;SDS011;13071;48.868;9.996;2023-02-05T03:08:10;4.80;;;3.07;;
25079;SDS011;13071;48.868;9.996;2023-02-05T03:10:40;7.27;;;2.33;;
25079;SDS011;13071;48.868;9.996;2023-02-05T03:13:12;3.80;;;2.77;;
25079;SDS011;13071;48.868;9.996;2023-02-05T03:15:39;8.43;;;2.97;;
25079;SDS011;13071;48.868;9.996;2023-02-05T03:18:08;3.20;;;2.47;;
25079;SDS011;13071;48.868;9.996;2023-02-05T03:20:37;7.87;;;2.97;;
25079;SDS011;13071;48.868;9.996;2023-02-05T03:23:07;4.73;;;2.93;;
25079;SDS011;13071;48.868;9.996;2023-02-05T03:25:34;5.73;;;2.53;;
25079;SDS011;13071;48.868;9.996;2023-02-05T03:28:01;5.30;;;2.30;;
25079;SDS011;13071;48.868;9.996;2023-02-05T03:30:31;2.80;;;2.00;;
25079;SDS011;13071;48.868;9.996;2023-02-05T03:33:09;3.97;;;1.73;;
25079;SDS011;13071;48.868;9.996;2023-02-05T03:35:50;3.43;;;2.43;;
25079;SDS011;13071;48.868;9.996;2023-02-05T03:38:33;2.47;;;1.80;;
25079;SDS011;13071;48.868;9.996;2023-02-05T03:41:14;2.73;;;1.80;;
25079;SDS011;13071;48.868;9.996;2023-02-05T03:43:47;2.80;;;1.60;;
25079;SDS011;13071;48.868;9.996;2023-02-05T03:46:24;4.77;;;1.73;;
25079;SDS011;13071;48.868;9.996;2023-02-05T03:49:00;6.90;;;2.20;;
25079;SDS011;13071;48.868;9.996;2023-02-05T03:51:37;4.30;;;1.80;;
25079;SDS011;13071;48.868;9.996;2023-02-05T03:54:11;4.47;;;1.50;;
25079;SDS011;13071;48.868;9.996;2023-02-05T03:56:48;2.60;;;1.90;;
25079;SDS011;13071;48.868;9.996;2023-02-05T03:59:20;8.07;;;2.10;;
25079;SDS011;13071;48.868;9.996;2023-02-05T04:01:49;1.60;;;1.30;;
25079;SDS011;13071;48.868;9.996;2023-02-05T04:04:17;2.23;;;1.60;;
25079;SDS011;13071;48.868;9.996;2023-02-05T04:06:45;8.83;;;2.27;;
25079;SDS011;13071;48.868;9.996;2023-02-05T04:09:12;2.03;;;1.70;;
25079;SDS011;13071;48.868;9.996;2023-02-05T04:11:38;3.40;;;1.57;;
25079;SDS011;13071;48.868;9.996;2023-02-05T04:14:05;3.70;;;1.70;;
25079;SDS011;13071;48.868;9.996;2023-02-05T04:16:32;2.07;;;1.43;;
25079;SDS011;13071;48.868;9.996;2023-02-05T04:19:00;7.00;;;1.70;;
25079;SDS011;13071;48.868;9.996;2023-02-05T04:21:27;3.20;;;1.87;;
25079;SDS011;13071;48.868;9.996;2023-02-05T04:23:53;4.97;;;1.83;;
25079;SDS011;13071;48.868;9.996;2023-02-05T04:26:20;4.77;;;1.60;;
25079;SDS011;13071;48.868;9.996;2023-02-05T04:28:46;3.17;;;1.50;;
25079;SDS011;13071;48.868;9.996;2023-02-05T04:31:13;2.33;;;1.70;;
25079;SDS011;13071;48.868;9.996;2023-02-05T04:33:40;1.33;;;1.23;;
25079;SDS011;13071;48.868;9.996;2023-02-05T04:36:08;1.40;;;1.23;;
25079;SDS011;13071;48.868;9.996;2023-02-05T04:38:35;2.00;;;1.20;;
25079;SDS011;13071;48.868;9.996;2023-02-05T04:41:02;3.17;;;1.83;;
25079;SDS011;13071;48.868;9.996;2023-02-05T04:43:29;4.27;;;2.00;;
25079;SDS011;13071;48.868;9.996;2023-02-05T04:45:55;4.00;;;1.55;;
25079;SDS011;13071;48.868;9.996;2023-02-05T04:48:22;1.77;;;1.67;;
25079;SDS011;13071;48.868;9.996;2023-02-05T04:50:48;4.60;;;1.80;;
25079;SDS011;13071;48.868;9.996;2023-02-05T04:53:16;6.13;;;2.43;;
25079;SDS011;13071;48.868;9.996;2023-02-05T04:55:43;3.83;;;2.20;;
25079;SDS011;13071;48.868;9.996;2023-02-05T04:58:09;6.63;;;2.70;;
25079;SDS011;13071;48.868;9.996;2023-02-05T05:00:36;5.30;;;2.00;;
25079;SDS011;13071;48.868;9.996;2023-02-05T05:03:03;3.03;;;2.10;;
25079;SDS011;13071;48.868;9.996;2023-02-05T05:05:29;4.83;;;2.40;;
25079;SDS011;13071;48.868;9.996;2023-02-05T05:07:57;3.67;;;2.50;;
25079;SDS011;13071;48.868;9.996;2023-02-05T05:10:26;2.72;;;2.38;;
25079;SDS011;13071;48.868;9.996;2023-02-05T05:12:53;6.70;;;2.60;;
25079;SDS011;13071;48.868;9.996;2023-02-05T05:15:19;10.20;;;3.33;;
25079;SDS011;13071;48.868;9.996;2023-02-05T05:17:46;4.53;;;2.17;;
25079;SDS011;13071;48.868;9.996;2023-02-05T05:20:12;5.87;;;2.80;;
25079;SDS011;13071;48.868;9.996;2023-02-05T05:22:39;3.97;;;1.85;;
25079;SDS011;13071;48.868;9.996;2023-02-05T05:25:05;3.07;;;2.30;;
25079;SDS011;13071;48.868;9.996;2023-02-05T05:27:34;6.93;;;2.63;;
25079;SDS011;13071;48.868;9.996;2023-02-05T05:30:00;3.80;;;2.00;;
25079;SDS011;13071;48.868;9.996;2023-02-05T05:32:27;3.83;;;1.90;;
25079;SDS011;13071;48.868;9.996;2023-02-05T05:34:53;6.33;;;2.50;;
25079;SDS011;13071;48.868;9.996;2023-02-05T05:37:21;4.40;;;2.37;;
25079;SDS011;13071;48.868;9.996;2023-02-05T05:39:47;3.07;;;2.33;;
25079;SDS011;13071;48.868;9.996;2023-02-05T05:42:31;3.77;;;2.37;;
25079;SDS011;13071;48.868;9.996;2023-02-05T05:45:17;4.80;;;2.37;;
25079;SDS011;13071;48.868;9.996;2023-02-05T05:47:43;7.67;;;2.40;;
25079;SDS011;13071;48.868;9.996;2023-02-05T05:50:10;4.27;;;2.83;;
25079;SDS011;13071;48.868;9.996;2023-02-05T05:52:36;4.67;;;2.00;;
25079;SDS011;13071;48.868;9.996;2023-02-05T05:55:03;7.18;;;2.53;;
25079;SDS011;13071;48.868;9.996;2023-02-05T05:57:30;5.33;;;2.40;;
25079;SDS011;13071;48.868;9.996;2023-02-05T05:59:56;4.83;;;2.23;;
25079;SDS011;13071;48.868;9.996;2023-02-05T06:02:24;6.00;;;2.40;;
25079;SDS011;13071;48.868;9.996;2023-02-05T06:04:51;3.63;;;2.23;;
25079;SDS011;13071;48.868;9.996;2023-02-05T06:07:18;6.53;;;2.47;;
25079;SDS011;13071;48.868;9.996;2023-02-05T06:09:44;7.47;;;2.13;;
25079;SDS011;13071;48.868;9.996;2023-02-05T06:12:11;4.78;;;2.22;;
25079;SDS011;13071;48.868;9.996;2023-02-05T06:14:37;4.15;;;2.20;;
25079;SDS011;13071;48.868;9.996;2023-02-05T06:17:04;2.93;;;2.13;;
25079;SDS011;13071;48.868;9.996;2023-02-05T06:19:32;3.53;;;2.27;;
25079;SDS011;13071;48.868;9.996;2023-02-05T06:21:59;4.70;;;2.50;;
25079;SDS011;13071;48.868;9.996;2023-02-05T06:24:25;3.53;;;2.13;;
25079;SDS011;13071;48.868;9.996;2023-02-05T06:26:52;3.22;;;1.48;;
25079;SDS011;13071;48.868;9.996;2023-02-05T06:29:19;2.97;;;1.93;;
25079;SDS011;13071;48.868;9.996;2023-02-05T06:31:45;4.30;;;1.83;;
25079;SDS011;13071;48.868;9.996;2023-02-05T06:34:12;3.13;;;2.08;;
25079;SDS011;13071;48.868;9.996;2023-02-05T06:36:40;4.68;;;2.25;;
25079;SDS011;13071;48.868;9.996;2023-02-05T06:39:06;6.50;;;2.23;;
25079;SDS011;13071;48.868;9.996;2023-02-05T06:41:33;3.13;;;2.03;;
25079;SDS011;13071;48.868;9.996;2023-02-05T06:43:59;4.27;;;1.90;;
25079;SDS011;13071;48.868;9.996;2023-02-05T06:46:27;3.28;;;2.03;;
25079;SDS011;13071;48.868;9.996;2023-02-05T06:48:54;3.53;;;2.10;;
25079;SDS011;13071;48.868;9.996;2023-02-05T06:51:20;2.30;;;1.90;;
25079;SDS011;13071;48.868;9.996;2023-02-05T06:53:48;3.50;;;1.95;;
25079;SDS011;13071;48.868;9.996;2023-02-05T06:56:16;2.85;;;2.17;;
25079;SDS011;13071;48.868;9.996;2023-02-05T06:58:44;4.25;;;2.08;;
25079;SDS011;13071;48.868;9.996;2023-02-05T07:01:10;2.97;;;2.17;;
25079;SDS011;13071;48.868;9.996;2023-02-05T07:03:37;5.80;;;2.50;;
25079;SDS011;13071;48.868;9.996;2023-02-05T07:06:04;4.10;;;2.13;;
25079;SDS011;13071;48.868;9.996;2023-02-05T07:08:31;2.75;;;2.10;;
25079;SDS011;13071;48.868;9.996;2023-02-05T07:11:00;4.15;;;2.20;;
25079;SDS011;13071;48.868;9.996;2023-02-05T07:13:28;5.67;;;2.03;;
25079;SDS011;13071;48.868;9.996;2023-02-05T07:15:55;2.90;;;2.10;;
25079;SDS011;13071;48.868;9.996;2023-02-05T07:18:21;2.90;;;1.70;;
25079;SDS011;13071;48.868;9.996;2023-02-05T07:20:48;5.45;;;2.72;;
25079;SDS011;13071;48.868;9.996;2023-02-05T07:23:14;4.40;;;2.55;;
25079;SDS011;13071;48.868;9.996;2023-02-05T07:25:41;4.18;;;2.58;;
25079;SDS011;13071;48.868;9.996;2023-02-05T07:28:09;6.22;;;2.85;;
25079;SDS011;13071;48.868;9.996;2023-02-05T07:30:36;4.50;;;2.60;;
25079;SDS011;13071;48.868;9.996;2023-02-05T07:33:03;4.47;;;2.80;;
25079;SDS011;13071;48.868;9.996;2023-02-05T07:35:29;6.15;;;3.00;;
25079;SDS011;13071;48.868;9.996;2023-02-05T07:37:56;3.72;;;2.70;;
25079;SDS011;13071;48.868;9.996;2023-02-05T07:40:23;4.35;;;2.78;;
25079;SDS011;13071;48.868;9.996;2023-02-05T07:42:50;5.00;;;2.95;;
25079;SDS011;13071;48.868;9.996;2023-02-05T07:45:18;9.90;;;4.18;;
25079;SDS011;13071;48.868;9.996;2023-02-05T07:47:44;8.82;;;3.30;;
25079;SDS011;13071;48.868;9.996;2023-02-05T07:50:13;8.68;;;3.10;;
25079;SDS011;13071;48.868;9.996;2023-02-05T07:52:40;4.33;;;2.63;;
25079;SDS011;13071;48.868;9.996;2023-02-05T07:55:07;7.82;;;3.33;;
25079;SDS011;13071;48.868;9.996;2023-02-05T07:57:34;4.18;;;2.50;;
25079;SDS011;13071;48.868;9.996;2023-02-05T08:00:00;6.35;;;2.50;;
25079;SDS011;13071;48.868;9.996;2023-02-05T08:02:28;4.47;;;2.80;;
25079;SDS011;13071;48.868;9.996;2023-02-05T08:04:55;5.90;;;3.35;;
25079;SDS011;13071;48.868;9.996;2023-02-05T08:07:21;5.03;;;3.10;;
25079;SDS011;13071;48.868;9.996;2023-02-05T08:09:48;5.30;;;2.85;;
25079;SDS011;13071;48.868;9.996;2023-02-05T08:12:14;5.35;;;3.38;;
25079;SDS011;13071;48.868;9.996;2023-02-05T08:14:41;5.67;;;2.90;;
25079;SDS011;13071;48.868;9.996;2023-02-05T08:17:07;4.17;;;2.70;;
25079;SDS011;13071;48.868;9.996;2023-02-05T08:19:35;6.78;;;3.00;;
25079;SDS011;13071;48.868;9.996;2023-02-05T08:22:02;7.27;;;3.77;;
25079;SDS011;13071;48.868;9.996;2023-02-05T08:24:29;7.83;;;4.97;;
25079;SDS011;13071;48.868;9.996;2023-02-05T08:26:56;8.25;;;3.30;;
25079;SDS011;13071;48.868;9.996;2023-02-05T08:29:23;5.45;;;2.92;;
25079;SDS011;13071;48.868;9.996;2023-02-05T08:31:49;6.80;;;3.45;;
25079;SDS011;13071;48.868;9.996;2023-02-05T08:34:16;7.07;;;2.75;;
25079;SDS011;13071;48.868;9.996;2023-02-05T08:36:44;4.65;;;2.80;;
25079;SDS011;13071;48.868;9.996;2023-02-05T08:39:10;7.85;;;3.53;;
25079;SDS011;13071;48.868;9.996;2023-02-05T08:41:37;7.40;;;3.92;;
25079;SDS011;13071;48.868;9.996;2023-02-05T08:44:04;6.55;;;3.45;;
25079;SDS011;13071;48.868;9.996;2023-02-05T08:46:30;8.05;;;3.60;;
25079;SDS011;13071;48.868;9.996;2023-02-05T08:48:57;5.88;;;3.22;;
25079;SDS011;13071;48.868;9.996;2023-02-05T08:51:24;3.63;;;2.95;;
25079;SDS011;13071;48.868;9.996;2023-02-05T08:53:52;14.88;;;3.70;;
25079;SDS011;13071;48.868;9.996;2023-02-05T08:56:20;28.17;;;4.38;;
25079;SDS011;13071;48.868;9.996;2023-02-05T08:58:47;14.57;;;4.22;;
25079;SDS011;13071;48.868;9.996;2023-02-05T09:01:14;47.45;;;16.95;;
25079;SDS011;13071;48.868;9.996;2023-02-05T09:03:42;4.82;;;3.38;;
25079;SDS011;13071;48.868;9.996;2023-02-05T09:06:10;8.73;;;5.15;;
25079;SDS011;13071;48.868;9.996;2023-02-05T09:08:37;10.13;;;4.70;;
25079;SDS011;13071;48.868;9.996;2023-02-05T09:11:06;9.00;;;4.10;;
25079;SDS011;13071;48.868;9.996;2023-02-05T09:13:33;10.52;;;4.07;;
25079;SDS011;13071;48.868;9.996;2023-02-05T09:16:00;9.70;;;4.20;;
25079;SDS011;13071;48.868;9.996;2023-02-05T09:18:27;7.65;;;4.20;;
25079;SDS011;13071;48.868;9.996;2023-02-05T09:20:53;9.18;;;4.60;;
25079;SDS011;13071;48.868;9.996;2023-02-05T09:23:21;9.30;;;4.45;;
25079;SDS011;13071;48.868;9.996;2023-02-05T09:25:47;13.07;;;4.95;;
25079;SDS011;13071;48.868;9.996;2023-02-05T09:28:15;11.48;;;5.07;;
25079;SDS011;13071;48.868;9.996;2023-02-05T09:30:43;16.05;;;5.75;;
25079;SDS011;13071;48.868;9.996;2023-02-05T09:33:11;13.38;;;5.47;;
25079;SDS011;13071;48.868;9.996;2023-02-05T09:35:38;14.77;;;6.35;;
25079;SDS011;13071;48.868;9.996;2023-02-05T09:38:06;10.40;;;4.70;;
25079;SDS011;13071;48.868;9.996;2023-02-05T09:40:33;5.90;;;3.70;;
25079;SDS011;13071;48.868;9.996;2023-02-05T09:43:07;11.45;;;4.43;;
25079;SDS011;13071;48.868;9.996;2023-02-05T09:45:51;10.63;;;3.83;;
25079;SDS011;13071;48.868;9.996;2023-02-05T09:48:30;6.45;;;3.50;;
25079;SDS011;13071;48.868;9.996;2023-02-05T09:51:10;6.47;;;3.05;;
25079;SDS011;13071;48.868;9.996;2023-02-05T09:53:39;9.97;;;5.50;;
25079;SDS011;13071;48.868;9.996;2023-02-05T09:56:09;19.60;;;6.38;;
25079;SDS011;13071;48.868;9.996;2023-02-05T09:58:41;14.30;;;7.72;;
25079;SDS011;13071;48.868;9.996;2023-02-05T10:01:12;6.43;;;3.88;;
25079;SDS011;13071;48.868;9.996;2023-02-05T10:03:45;7.65;;;3.97;;
25079;SDS011;13071;48.868;9.996;2023-02-05T10:06:24;9.65;;;3.97;;
25079;SDS011;13071;48.868;9.996;2023-02-05T10:09:08;7.25;;;3.53;;
25079;SDS011;13071;48.868;9.996;2023-02-05T10:11:47;6.65;;;3.00;;
25079;SDS011;13071;48.868;9.996;2023-02-05T10:14:23;7.30;;;3.65;;
25079;SDS011;13071;48.868;9.996;2023-02-05T10:17:05;6.60;;;3.55;;
25079;SDS011;13071;48.868;9.996;2023-02-05T10:19:56;12.23;;;4.00;;
25079;SDS011;13071;48.868;9.996;2023-02-05T10:22:42;11.98;;;4.00;;
25079;SDS011;13071;48.868;9.996;2023-02-05T10:28:23;6.97;;;3.72;;
25079;SDS011;13071;48.868;9.996;2023-02-05T10:31:03;8.27;;;3.85;;
25079;SDS011;13071;48.868;9.996;2023-02-05T10:33:40;11.90;;;4.20;;
25079;SDS011;13071;48.868;9.996;2023-02-05T10:36:13;13.25;;;6.10;;
25079;SDS011;13071;48.868;9.996;2023-02-05T10:38:41;14.35;;;4.65;;
25079;SDS011;13071;48.868;9.996;2023-02-05T10:41:11;14.30;;;6.15;;
25079;SDS011;13071;48.868;9.996;2023-02-05T10:43:44;22.55;;;9.15;;
25079;SDS011;13071;48.868;9.996;2023-02-05T10:46:15;15.95;;;6.65;;
25079;SDS011;13071;48.868;9.996;2023-02-05T10:48:42;17.13;;;5.40;;
25079;SDS011;13071;48.868;9.996;2023-02-05T10:51:11;7.78;;;4.22;;
25079;SDS011;13071;48.868;9.996;2023-02-05T10:53:41;15.50;;;5.13;;
25079;SDS011;13071;48.868;9.996;2023-02-05T10:56:10;13.15;;;4.88;;
25079;SDS011;13071;48.868;9.996;2023-02-05T10:58:45;9.10;;;4.35;;
25079;SDS011;13071;48.868;9.996;2023-02-05T11:01:19;8.93;;;3.97;;
25079;SDS011;13071;48.868;9.996;2023-02-05T11:03:53;14.02;;;6.05;;
25079;SDS011;13071;48.868;9.996;2023-02-05T11:06:24;14.20;;;6.60;;
25079;SDS011;13071;48.868;9.996;2023-02-05T11:08:52;13.30;;;5.88;;
25079;SDS011;13071;48.868;9.996;2023-02-05T11:11:21;11.43;;;5.85;;
25079;SDS011;13071;48.868;9.996;2023-02-05T11:13:51;10.73;;;5.65;;
25079;SDS011;13071;48.868;9.996;2023-02-05T11:16:22;12.13;;;4.90;;
25079;SDS011;13071;48.868;9.996;2023-02-05T11:18:55;16.30;;;5.85;;
25079;SDS011;13071;48.868;9.996;2023-02-05T11:21:25;9.90;;;5.20;;
25079;SDS011;13071;48.868;9.996;2023-02-05T11:24:19;10.10;;;4.80;;
25079;SDS011;13071;48.868;9.996;2023-02-05T11:26:48;14.25;;;5.32;;
25079;SDS011;13071;48.868;9.996;2023-02-05T11:29:17;8.35;;;4.80;;
25079;SDS011;13071;48.868;9.996;2023-02-05T11:31:46;12.35;;;5.35;;
25079;SDS011;13071;48.868;9.996;2023-02-05T11:34:13;16.05;;;5.43;;
25079;SDS011;13071;48.868;9.996;2023-02-05T11:36:46;12.00;;;5.20;;
25079;SDS011;13071;48.868;9.996;2023-02-05T11:39:20;8.07;;;4.57;;
25079;SDS011;13071;48.868;9.996;2023-02-05T11:41:54;8.43;;;4.25;;
25079;SDS011;13071;48.868;9.996;2023-02-05T11:44:23;15.90;;;3.97;;
25079;SDS011;13071;48.868;9.996;2023-02-05T11:46:53;6.50;;;3.58;;
25079;SDS011;13071;48.868;9.996;2023-02-05T11:49:23;8.60;;;4.07;;
25079;SDS011;13071;48.868;9.996;2023-02-05T11:51:55;9.52;;;3.92;;
25079;SDS011;13071;48.868;9.996;2023-02-05T11:54:24;7.95;;;3.55;;
25079;SDS011;13071;48.868;9.996;2023-02-05T11:57:04;10.85;;;4.38;;
25079;SDS011;13071;48.868;9.996;2023-02-05T11:59:32;9.15;;;4.05;;
25079;SDS011;13071;48.868;9.996;2023-02-05T12:02:17;9.25;;;4.30;;
25079;SDS011;13071;48.868;9.996;2023-02-05T12:04:57;11.38;;;4.70;;
25079;SDS011;13071;48.868;9.996;2023-02-05T12:07:26;10.10;;;4.10;;
25079;SDS011;13071;48.868;9.996;2023-02-05T12:09:56;10.40;;;3.80;;
25079;SDS011;13071;48.868;9.996;2023-02-05T12:12:25;10.70;;;4.35;;
25079;SDS011;13071;48.868;9.996;2023-02-05T12:15:02;10.60;;;5.00;;
25079;SDS011;13071;48.868;9.996;2023-02-05T12:17:39;9.25;;;4.35;;
25079;SDS011;13071;48.868;9.996;2023-02-05T12:20:15;11.43;;;4.60;;
25079;SDS011;13071;48.868;9.996;2023-02-05T12:23:01;12.20;;;4.65;;
25079;SDS011;13071;48.868;9.996;2023-02-05T12:25:45;9.73;;;4.18;;
25079;SDS011;13071;48.868;9.996;2023-02-05T12:28:21;12.20;;;4.28;;
25079;SDS011;13071;48.868;9.996;2023-02-05T12:30:58;7.35;;;3.83;;
25079;SDS011;13071;48.868;9.996;2023-02-05T12:33:37;7.50;;;4.05;;
25079;SDS011;13071;48.868;9.996;2023-02-05T12:36:18;6.47;;;3.90;;
25079;SDS011;13071;48.868;9.996;2023-02-05T12:38:58;9.07;;;4.28;;
25079;SDS011;13071;48.868;9.996;2023-02-05T12:41:35;7.07;;;3.58;;
25079;SDS011;13071;48.868;9.996;2023-02-05T12:44:12;10.95;;;4.90;;
25079;SDS011;13071;48.868;9.996;2023-02-05T12:46:54;14.02;;;4.47;;
25079;SDS011;13071;48.868;9.996;2023-02-05T12:49:35;7.50;;;4.32;;
25079;SDS011;13071;48.868;9.996;2023-02-05T12:52:17;8.95;;;3.92;;
25079;SDS011;13071;48.868;9.996;2023-02-05T12:54:56;9.68;;;4.18;;
25079;SDS011;13071;48.868;9.996;2023-02-05T12:57:35;9.98;;;4.32;;
25079;SDS011;13071;48.868;9.996;2023-02-05T13:00:09;10.70;;;4.45;;
25079;SDS011;13071;48.868;9.996;2023-02-05T13:02:42;10.23;;;4.88;;
25079;SDS011;13071;48.868;9.996;2023-02-05T13:05:18;8.77;;;4.45;;
25079;SDS011;13071;48.868;9.996;2023-02-05T13:07:49;10.98;;;5.05;;
25079;SDS011;13071;48.868;9.996;2023-02-05T13:10:21;8.98;;;4.68;;
25079;SDS011;13071;48.868;9.996;2023-02-05T13:12:51;14.50;;;5.03;;
25079;SDS011;13071;48.868;9.996;2023-02-05T13:15:24;9.13;;;4.97;;
25079;SDS011;13071;48.868;9.996;2023-02-05T13:17:56;15.05;;;5.82;;
25079;SDS011;13071;48.868;9.996;2023-02-05T13:20:29;15.90;;;6.90;;
25079;SDS011;13071;48.868;9.996;2023-02-05T13:23:16;11.02;;;5.47;;
25079;SDS011;13071;48.868;9.996;2023-02-05T13:26:02;13.32;;;6.10;;
25079;SDS011;13071;48.868;9.996;2023-02-05T13:28:50;11.50;;;5.45;;
25079;SDS011;13071;48.868;9.996;2023-02-05T13:31:24;16.30;;;6.25;;
25079;SDS011;13071;48.868;9.996;2023-02-05T13:33:55;16.58;;;6.80;;
25079;SDS011;13071;48.868;9.996;2023-02-05T13:39:40;16.20;;;6.72;;
25079;SDS011;13071;48.868;9.996;2023-02-05T13:45:51;10.18;;;5.72;;
25079;SDS011;13071;48.868;9.996;2023-02-05T13:48:41;11.48;;;5.15;;
25079;SDS011;13071;48.868;9.996;2023-02-05T13:54:45;10.18;;;5.88;;
25079;SDS011;13071;48.868;9.996;2023-02-05T14:00:33;11.38;;;5.32;;
25079;SDS011;13071;48.868;9.996;2023-02-05T14:03:02;14.55;;;6.38;;
25079;SDS011;13071;48.868;9.996;2023-02-05T14:05:33;11.10;;;5.85;;
25079;SDS011;13071;48.868;9.996;2023-02-05T14:08:01;21.02;;;9.05;;
25079;SDS011;13071;48.868;9.996;2023-02-05T14:10:31;16.80;;;7.70;;
25079;SDS011;13071;48.868;9.996;2023-02-05T14:13:10;28.02;;;10.82;;
25079;SDS011;13071;48.868;9.996;2023-02-05T14:15:44;58.40;;;19.98;;
25079;SDS011;13071;48.868;9.996;2023-02-05T14:18:11;21.73;;;10.00;;
25079;SDS011;13071;48.868;9.996;2023-02-05T14:20:59;26.73;;;11.73;;
25079;SDS011;13071;48.868;9.996;2023-02-05T14:32:06;17.83;;;7.65;;
25079;SDS011;13071;48.868;9.996;2023-02-05T14:34:45;13.40;;;6.57;;
25079;SDS011;13071;48.868;9.996;2023-02-05T14:40:24;13.95;;;5.63;;
25079;SDS011;13071;48.868;9.996;2023-02-05T14:42:55;12.32;;;6.28;;
25079;SDS011;13071;48.868;9.996;2023-02-05T14:45:23;14.45;;;5.97;;
25079;SDS011;13071;48.868;9.996;2023-02-05T14:47:52;13.32;;;5.97;;
25079;SDS011;13071;48.868;9.996;2023-02-05T14:50:21;18.08;;;8.07;;
25079;SDS011;13071;48.868;9.996;2023-02-05T14:52:51;16.02;;;7.47;;
25079;SDS011;13071;48.868;9.996;2023-02-05T14:55:20;12.90;;;6.90;;
25079;SDS011;13071;48.868;9.996;2023-02-05T14:57:50;17.27;;;7.05;;
25079;SDS011;13071;48.868;9.996;2023-02-05T15:00:30;13.57;;;6.45;;
25079;SDS011;13071;48.868;9.996;2023-02-05T15:03:17;17.52;;;7.07;;
25079;SDS011;13071;48.868;9.996;2023-02-05T15:05:51;14.32;;;6.95;;
25079;SDS011;13071;48.868;9.996;2023-02-05T15:08:25;13.02;;;7.28;;
25079;SDS011;13071;48.868;9.996;2023-02-05T15:11:08;19.77;;;7.15;;
25079;SDS011;13071;48.868;9.996;2023-02-05T15:13:39;18.20;;;7.45;;
25079;SDS011;13071;48.868;9.996;2023-02-05T15:16:18;17.92;;;7.35;;
25079;SDS011;13071;48.868;9.996;2023-02-05T15:18:46;16.50;;;6.43;;
25079;SDS011;13071;48.868;9.996;2023-02-05T15:21:16;14.35;;;6.38;;
25079;SDS011;13071;48.868;9.996;2023-02-05T15:23:50;12.98;;;6.78;;
25079;SDS011;13071;48.868;9.996;2023-02-05T15:26:22;14.38;;;6.50;;
25079;SDS011;13071;48.868;9.996;2023-02-05T15:28:58;13.00;;;6.75;;
25079;SDS011;13071;48.868;9.996;2023-02-05T15:31:32;14.07;;;6.15;;
25079;SDS011;13071;48.868;9.996;2023-02-05T15:34:05;13.00;;;5.88;;